Time;durP1;ratioP1;P1;durP2;ratioP2;P2;SDS_P1;SDS_P2;PMS_P1;PMS_P2;Temp;Humidity;BMP_temperature;BMP_pressure;BME280_temperature;BME280_humidity;BME280_pressure;Samples;Min_cycle;Max_cycle;Signal;HPM_P1;HPM_P2
2022/02/10 00:08:06;;;;;;;13.27;9.25;;;8.10;99.90;;;;;;6151416;23;20013;-84
2022/02/10 00:18:50;;;;;;;10.48;7.25;;;8.00;99.90;;;;;;6151974;23;20012;-83
2022/02/10 00:21:22;;;;;;;11.73;7.50;;;8.00;99.90;;;;;;6151065;23;20005;-84
2022/02/10 00:34:29;;;;;;;10.45;6.65;;;8.00;99.90;;;;;;6155066;23;20492;-84
2022/02/10 00:37:10;;;;;;;10.05;6.82;;;8.00;99.90;;;;;;6155100;23;20044;-84
2022/02/10 00:42:21;;;;;;;9.43;6.30;;;7.90;99.90;;;;;;6153266;23;20072;-84
2022/02/10 00:44:46;;;;;;;10.50;6.40;;;8.00;99.90;;;;;;6128130;23;20017;-83
2022/02/10 00:47:12;;;;;;;7.30;5.40;;;8.00;99.90;;;;;;6128792;23;20028;-83
2022/02/10 00:49:38;;;;;;;9.23;5.68;;;7.90;99.90;;;;;;6153288;23;20091;-83
2022/02/10 00:52:05;;;;;;;8.27;6.03;;;7.90;99.90;;;;;;6128722;23;20394;-83
2022/02/10 00:54:36;;;;;;;7.40;5.50;;;7.90;99.90;;;;;;6128501;23;20009;-83
2022/02/10 00:57:04;;;;;;;6.80;4.55;;;7.90;99.90;;;;;;6128952;23;20107;-84
2022/02/10 01:12:53;;;;;;;6.40;4.70;;;7.90;99.90;;;;;;6152343;23;20013;-83
2022/02/10 01:31:43;;;;;;;8.23;5.20;;;7.80;99.90;;;;;;6152465;23;20014;-84
2022/02/10 01:34:09;;;;;;;7.07;4.57;;;7.80;99.90;;;;;;6128492;23;20006;-83
2022/02/10 01:36:35;;;;;;;6.18;3.95;;;7.80;99.90;;;;;;6127805;23;20018;-84
2022/02/10 01:39:01;;;;;;;5.78;3.90;;;7.80;99.90;;;;;;6153240;23;20009;-82
2022/02/10 01:58:23;;;;;;;5.97;2.85;;;7.70;99.90;;;;;;6152285;23;20021;-84
2022/02/10 02:03:34;;;;;;;3.40;2.10;;;7.70;99.90;;;;;;6152194;23;20009;-83
2022/02/10 02:06:03;;;;;;;3.88;2.35;;;7.70;99.90;;;;;;6128153;23;20028;-84
2022/02/10 02:08:32;;;;;;;3.08;1.67;;;7.70;99.90;;;;;;6127927;23;20013;-84
2022/02/10 02:10:59;;;;;;;3.97;2.00;;;7.70;99.90;;;;;;6127529;23;20009;-84
2022/02/10 02:13:25;;;;;;;4.20;2.60;;;7.70;99.90;;;;;;6152455;23;20009;-84
2022/02/10 02:15:53;;;;;;;3.22;2.40;;;7.70;99.90;;;;;;6152085;23;20083;-84
2022/02/10 02:18:19;;;;;;;4.00;2.30;;;7.70;99.90;;;;;;6128345;23;20002;-84
2022/02/10 02:20:50;;;;;;;3.95;2.38;;;7.70;99.90;;;;;;6127206;23;20096;-83
2022/02/10 02:23:20;;;;;;;4.50;2.45;;;7.70;99.90;;;;;;6127353;23;20021;-83
2022/02/10 02:25:53;;;;;;;3.47;2.23;;;7.70;99.90;;;;;;6151257;23;20013;-82
2022/02/10 02:28:19;;;;;;;3.13;2.10;;;7.70;99.90;;;;;;6152317;23;20009;-82
2022/02/10 02:30:50;;;;;;;3.33;1.90;;;7.70;99.90;;;;;;6127174;23;20060;-84
2022/02/10 03:05:45;;;;;;;3.95;2.47;;;7.70;99.90;;;;;;6151480;23;20017;-83
2022/02/10 03:08:17;;;;;;;4.03;2.72;;;7.70;99.90;;;;;;6127568;23;20084;-83
2022/02/10 03:13:15;;;;;;;3.70;2.40;;;7.70;99.90;;;;;;6151977;23;20382;-84
2022/02/10 03:16:04;;;;;;;3.53;2.25;;;7.70;99.90;;;;;;6126975;23;20006;-83
2022/02/10 04:02:05;;;;;;;4.45;2.95;;;7.60;99.90;;;;;;6152279;23;20472;-83
2022/02/10 04:04:49;;;;;;;4.53;2.97;;;7.60;99.90;;;;;;6152938;23;20049;-83
2022/02/10 04:15:19;;;;;;;4.15;2.65;;;7.60;99.90;;;;;;6153847;23;20060;-83
2022/02/10 04:31:34;;;;;;;4.90;3.78;;;7.60;99.90;;;;;;6095571;23;20037;-84
2022/02/10 04:42:59;;;;;;;7.13;4.03;;;7.60;99.90;;;;;;6128887;23;20005;-84
2022/02/10 04:56:21;;;;;;;6.97;5.00;;;7.60;99.90;;;;;;6110019;23;20005;-84
2022/02/10 05:17:21;;;;;;;8.32;6.70;;;7.60;99.90;;;;;;6154686;23;20013;-87
2022/02/10 05:22:46;;;;;;;11.25;7.32;;;7.50;99.90;;;;;;6127947;23;20120;-87
2022/02/10 05:33:41;;;;;;;9.98;6.63;;;7.50;99.90;;;;;;6152521;23;20439;-87
2022/02/10 05:36:10;;;;;;;10.13;6.22;;;7.50;99.90;;;;;;6128073;23;20013;-87
2022/02/10 05:38:43;;;;;;;10.85;7.30;;;7.40;99.90;;;;;;6128639;23;20012;-87
2022/02/10 05:46:59;;;;;;;7.75;5.75;;;7.50;99.90;;;;;;6068643;23;20030;-88
2022/02/10 05:49:57;;;;;;;7.55;5.82;;;7.50;99.90;;;;;;6068930;23;20431;-88
2022/02/10 05:58:00;;;;;;;11.80;8.90;;;7.40;99.90;;;;;;6046078;23;20162;-87
2022/02/10 06:43:05;;;;;;;10.80;6.78;;;7.40;99.90;;;;;;6151139;23;20012;-87
2022/02/10 06:57:28;;;;;;;12.88;9.95;;;7.40;99.90;;;;;;6153264;23;20021;-87
2022/02/10 07:10:45;;;;;;;13.43;9.55;;;7.40;99.90;;;;;;6152302;23;20270;-87
2022/02/10 07:16:24;;;;;;;13.95;8.93;;;7.40;99.90;;;;;;6129456;23;20021;-87
2022/02/10 07:57:36;;;;;;;13.90;9.85;;;7.30;99.90;;;;;;5978469;24;20434;-84
2022/02/10 08:00:26;;;;;;;9.43;6.93;;;7.30;99.90;;;;;;6062701;23;20066;-83
2022/02/10 08:53:18;;;;;;;1.48;0.40;;;6.80;99.90;;;;;;6152174;23;20065;-81
2022/02/10 08:55:24;;;;;;;2.75;0.57;;;6.80;99.90;;;;;;6153678;23;20454;-81
2022/02/10 09:03:31;;;;;;;3.05;0.40;;;6.80;99.90;;;;;;6153854;23;20040;-81
2022/02/10 09:06:53;;;;;;;2.60;0.95;;;6.60;99.90;;;;;;6151659;23;20017;-81
2022/02/10 09:09:29;;;;;;;1.67;0.25;;;6.60;99.90;;;;;;6136046;23;20316;-81
2022/02/10 09:12:07;;;;;;;2.00;0.30;;;6.70;99.90;;;;;;6150994;23;20020;-81
2022/02/10 09:21:03;;;;;;;3.38;0.20;;;6.70;99.90;;;;;;6151805;23;20005;-82
2022/02/10 09:48:13;;;;;;;1.63;0.20;;;6.80;99.90;;;;;;6153631;23;20088;-82
2022/02/10 09:55:31;;;;;;;2.45;0.20;;;6.70;99.90;;;;;;6150421;23;20108;-81
2022/02/10 09:58:10;;;;;;;3.35;0.20;;;6.70;99.90;;;;;;6153011;23;20460;-81
2022/02/10 10:01:02;;;;;;;1.63;0.10;;;6.80;99.90;;;;;;6151399;23;20340;-82
2022/02/10 10:03:34;;;;;;;2.95;0.20;;;7.00;99.90;;;;;;6132085;23;20471;-82
2022/02/10 10:06:17;;;;;;;3.28;0.10;;;7.00;99.90;;;;;;6127328;23;20470;-81
2022/02/10 10:11:53;;;;;;;4.32;0.20;;;6.90;99.90;;;;;;6151330;23;20005;-81
2022/02/10 10:14:32;;;;;;;2.38;0.30;;;6.90;99.90;;;;;;6151590;23;20403;-81
2022/02/10 10:22:39;;;;;;;3.35;0.52;;;6.80;99.90;;;;;;6151437;23;20006;-82
2022/02/10 10:50:50;;;;;;;3.33;0.20;;;7.30;99.90;;;;;;6067161;23;20030;-83
2022/02/10 10:53:37;;;;;;;2.72;0.20;;;7.40;99.90;;;;;;6067026;23;20010;-83
2022/02/10 10:58:35;;;;;;;1.33;0.20;;;7.70;99.90;;;;;;6067671;23;20010;-84
2022/02/10 11:03:41;;;;;;;1.73;0.20;;;7.60;99.90;;;;;;6091704;23;20013;-83
2022/02/10 11:25:34;;;;;;;5.82;0.40;;;7.80;99.90;;;;;;6151384;23;20060;-85
2022/02/10 11:38:54;;;;;;;2.75;0.20;;;8.50;99.90;;;;;;6126696;23;20017;-86
2022/02/10 12:00:21;;;;;;;2.17;0.30;;;8.20;99.90;;;;;;6152394;23;20006;-85
2022/02/10 12:42:37;;;;;;;3.15;1.10;;;8.30;99.90;;;;;;6016559;23;20015;-84
2022/02/10 13:33:08;;;;;;;6.22;3.08;;;8.30;99.90;;;;;;6127578;23;20106;-86
2022/02/10 14:14:17;;;;;;;7.85;0.82;;;8.10;99.90;;;;;;6127404;23;20016;-87
2022/02/10 14:16:50;;;;;;;5.85;0.70;;;8.10;99.90;;;;;;6102464;23;20008;-83
2022/02/10 14:19:27;;;;;;;6.85;0.80;;;8.00;99.90;;;;;;6103038;23;20037;-84
2022/02/10 14:22:40;;;;;;;6.00;0.60;;;8.00;99.90;;;;;;6128257;23;20016;-84
2022/02/10 14:27:23;;;;;;;7.20;0.60;;;8.00;99.90;;;;;;6152279;23;20021;-82
2022/02/10 14:29:49;;;;;;;4.35;0.88;;;7.90;99.90;;;;;;6153233;23;20032;-85
2022/02/10 14:32:18;;;;;;;6.03;0.60;;;7.90;99.90;;;;;;6127011;23;20323;-83
2022/02/10 14:34:46;;;;;;;6.85;0.68;;;7.90;99.90;;;;;;6126823;23;20012;-84
2022/02/10 14:40:03;;;;;;;3.28;0.40;;;7.90;99.90;;;;;;6153544;23;20009;-84
2022/02/10 15:13:30;;;;;;;7.75;0.45;;;7.80;99.90;;;;;;6150853;23;20005;-82
2022/02/10 16:17:26;;;;;;;2.50;0.20;;;7.10;99.90;;;;;;6068591;23;20045;-83
2022/02/10 16:19:54;;;;;;;6.60;0.30;;;7.10;99.90;;;;;;6069117;23;20070;-83
2022/02/10 16:24:51;;;;;;;3.75;0.30;;;7.00;99.90;;;;;;6068202;23;20131;-84
2022/02/10 16:29:47;;;;;;;3.67;0.40;;;7.00;99.90;;;;;;6144410;23;20077;-84
2022/02/10 16:32:13;;;;;;;1.88;0.20;;;7.00;99.90;;;;;;6128659;23;20091;-83
2022/02/10 16:34:40;;;;;;;3.50;0.30;;;7.00;99.90;;;;;;6152672;23;20009;-83
2022/02/10 16:37:10;;;;;;;1.42;0.20;;;7.00;99.90;;;;;;6128715;23;20013;-83
2022/02/10 16:39:37;;;;;;;4.70;0.30;;;6.90;99.90;;;;;;6152888;23;20033;-83
2022/02/10 16:42:05;;;;;;;3.58;0.30;;;6.90;99.90;;;;;;6154134;23;20017;-83
2022/02/10 16:44:30;;;;;;;4.80;0.70;;;6.90;99.90;;;;;;6127756;23;20458;-84
2022/02/10 16:46:57;;;;;;;6.55;0.50;;;6.80;99.90;;;;;;6128221;23;20017;-84
2022/02/10 16:49:23;;;;;;;4.57;0.30;;;6.90;99.90;;;;;;6128727;23;20071;-83
2022/02/10 16:51:49;;;;;;;6.07;0.40;;;6.80;99.90;;;;;;6128147;23;20014;-83
2022/02/10 16:54:36;;;;;;;5.50;0.50;;;6.90;99.90;;;;;;6128117;23;20005;-83
2022/02/10 16:57:06;;;;;;;3.80;0.30;;;6.80;99.90;;;;;;6128055;23;20009;-84
2022/02/10 16:59:49;;;;;;;4.70;0.63;;;6.80;99.90;;;;;;6105251;23;20014;-84
2022/02/10 17:05:32;;;;;;;2.20;0.55;;;6.80;99.90;;;;;;6152508;23;20006;-85
2022/02/10 17:17:13;;;;;;;2.65;0.30;;;6.70;99.90;;;;;;6154365;23;20162;-82
2022/02/10 17:27:26;;;;;;;7.63;0.50;;;6.60;99.90;;;;;;6152466;23;20029;-82
2022/02/10 17:35:34;;;;;;;4.00;0.40;;;6.60;99.90;;;;;;6152239;23;20014;-81
2022/02/10 17:51:40;;;;;;;7.70;0.40;;;6.50;99.90;;;;;;6154128;23;20056;-81
2022/02/10 17:54:06;;;;;;;3.83;0.30;;;6.50;99.90;;;;;;6127108;23;20131;-81
2022/02/10 17:56:33;;;;;;;7.85;0.63;;;6.40;99.90;;;;;;6127360;23;20447;-81
2022/02/10 17:58:59;;;;;;;2.60;0.30;;;6.30;99.90;;;;;;6151594;23;20017;-82
2022/02/10 18:01:25;;;;;;;5.03;0.40;;;6.30;99.90;;;;;;6127874;23;20088;-81
2022/02/10 18:03:52;;;;;;;4.53;0.65;;;6.30;99.90;;;;;;6127258;23;20017;-81
2022/02/10 18:09:11;;;;;;;3.78;0.30;;;6.30;99.90;;;;;;6151987;23;20053;-81
2022/02/10 18:16:48;;;;;;;5.22;0.65;;;6.20;99.90;;;;;;6152844;23;20056;-81
2022/02/10 19:07:37;;;;;;;4.13;0.35;;;5.90;99.90;;;;;;6149868;23;20020;-82
2022/02/10 19:10:07;;;;;;;2.63;0.40;;;5.80;99.90;;;;;;6125849;23;20006;-83
2022/02/10 19:12:43;;;;;;;6.00;0.50;;;5.80;99.90;;;;;;6152305;23;20029;-81
2022/02/10 19:15:18;;;;;;;3.70;0.20;;;5.80;99.90;;;;;;6125752;23;20078;-81
2022/02/10 19:17:45;;;;;;;3.78;0.63;;;5.70;99.90;;;;;;6125266;23;20403;-81
2022/02/10 19:20:11;;;;;;;4.03;0.30;;;5.80;99.90;;;;;;6125382;23;20013;-81
2022/02/10 19:22:43;;;;;;;4.88;0.38;;;5.70;99.90;;;;;;6150041;23;20060;-82
2022/02/10 19:25:12;;;;;;;4.45;0.32;;;5.70;99.90;;;;;;6126050;23;20061;-81
2022/02/10 19:27:40;;;;;;;3.03;0.30;;;5.70;99.90;;;;;;6112640;23;20402;-81
2022/02/10 19:30:08;;;;;;;2.33;0.20;;;5.60;99.90;;;;;;6150126;23;20398;-81
2022/02/10 19:32:35;;;;;;;1.58;0.20;;;5.60;99.90;;;;;;6149730;23;20006;-81
2022/02/10 19:35:01;;;;;;;5.70;0.40;;;5.60;99.90;;;;;;6150004;23;20040;-81
2022/02/10 19:37:30;;;;;;;3.10;0.35;;;5.60;99.90;;;;;;6150540;23;20029;-81
2022/02/10 19:39:59;;;;;;;3.13;0.30;;;5.50;99.90;;;;;;6150498;23;20013;-81
2022/02/10 19:42:28;;;;;;;2.42;0.20;;;5.50;99.90;;;;;;6150123;23;20006;-82
2022/02/10 19:45:00;;;;;;;1.60;0.20;;;5.50;99.90;;;;;;6150241;23;20009;-82
2022/02/10 19:47:30;;;;;;;4.78;0.50;;;5.50;99.90;;;;;;6150333;23;20245;-81
2022/02/10 19:49:57;;;;;;;4.47;0.38;;;5.60;99.90;;;;;;6149738;23;20447;-81
2022/02/10 19:52:24;;;;;;;3.95;0.57;;;5.60;99.90;;;;;;6150027;23;20157;-82
2022/02/10 19:54:53;;;;;;;4.47;0.98;;;5.50;99.90;;;;;;6124848;23;20009;-82
2022/02/10 19:57:21;;;;;;;5.20;0.50;;;5.50;99.90;;;;;;6150343;23;20089;-82
2022/02/10 19:59:47;;;;;;;6.20;0.60;;;5.50;99.90;;;;;;6150573;23;20005;-82
2022/02/10 20:02:13;;;;;;;4.28;0.45;;;5.60;99.90;;;;;;6150501;23;20017;-81
2022/02/10 20:04:39;;;;;;;3.28;0.40;;;5.50;99.90;;;;;;6148706;23;20375;-81
2022/02/10 20:07:05;;;;;;;4.63;0.40;;;5.40;99.90;;;;;;6150038;23;20025;-82
2022/02/10 20:09:30;;;;;;;3.38;0.30;;;5.40;99.90;;;;;;6124934;23;20013;-82
2022/02/10 20:11:56;;;;;;;5.10;0.40;;;5.50;99.90;;;;;;6126505;23;20017;-82
2022/02/10 20:14:23;;;;;;;5.97;0.40;;;5.40;99.90;;;;;;6150561;23;20002;-82
2022/02/10 20:16:51;;;;;;;3.65;0.40;;;5.40;99.90;;;;;;6150208;23;20013;-81
2022/02/10 20:19:16;;;;;;;1.98;0.63;;;5.30;99.90;;;;;;6125119;23;20009;-81
2022/02/10 20:21:42;;;;;;;6.03;0.40;;;5.30;99.90;;;;;;6125129;23;20010;-82
2022/02/10 20:24:08;;;;;;;4.22;0.40;;;5.30;99.90;;;;;;6150044;23;20052;-81
2022/02/10 20:26:34;;;;;;;4.07;0.30;;;5.30;99.90;;;;;;6150151;23;20095;-82
2022/02/10 20:29:00;;;;;;;6.13;0.40;;;5.20;99.90;;;;;;6125665;23;20022;-82
2022/02/10 20:31:28;;;;;;;2.42;0.20;;;5.20;99.90;;;;;;6150085;23;20013;-81
2022/02/10 20:33:53;;;;;;;2.88;0.20;;;5.20;99.90;;;;;;6126098;23;20013;-82
2022/02/10 20:36:19;;;;;;;3.72;0.38;;;5.10;99.90;;;;;;6150459;23;20525;-84
2022/02/10 20:38:48;;;;;;;3.33;0.40;;;5.20;99.90;;;;;;6126636;23;20013;-82
2022/02/10 20:41:17;;;;;;;6.57;0.35;;;5.10;99.90;;;;;;6126663;23;20104;-82
2022/02/10 20:43:45;;;;;;;2.42;0.40;;;5.10;99.90;;;;;;6151218;23;20378;-82
2022/02/10 20:46:14;;;;;;;6.20;0.70;;;5.10;99.90;;;;;;6152975;23;20019;-81
2022/02/10 20:48:41;;;;;;;3.20;0.40;;;5.10;99.90;;;;;;6152092;23;20092;-81
2022/02/10 20:51:10;;;;;;;6.78;0.50;;;5.10;99.90;;;;;;6154438;23;20331;-81
2022/02/10 20:53:38;;;;;;;6.75;0.70;;;5.10;99.90;;;;;;6152525;23;20033;-81
2022/02/10 20:56:07;;;;;;;4.15;0.55;;;5.10;99.90;;;;;;6128673;23;20430;-81
2022/02/10 20:58:33;;;;;;;4.50;0.73;;;5.00;99.90;;;;;;6103994;23;20005;-81
2022/02/10 21:01:01;;;;;;;1.85;0.40;;;5.00;99.90;;;;;;6154328;23;20092;-82
2022/02/10 21:03:30;;;;;;;2.70;0.40;;;5.00;99.90;;;;;;6152276;23;20005;-81
2022/02/10 21:06:07;;;;;;;4.13;0.45;;;4.90;99.90;;;;;;6153573;23;20083;-82
2022/02/10 21:09:38;;;;;;;2.20;0.40;;;4.90;99.90;;;;;;6127757;23;20009;-81
2022/02/10 21:11:29;;;;;;;1.52;0.20;;;4.90;99.90;;;;;;6131083;23;20020;-81
2022/02/10 21:13:57;;;;;;;2.90;0.20;;;4.90;99.90;;;;;;6152558;23;20358;-81
2022/02/10 21:16:24;;;;;;;2.33;0.30;;;4.80;99.90;;;;;;6152977;23;20460;-81
2022/02/10 21:18:50;;;;;;;3.50;0.30;;;4.80;99.90;;;;;;6152309;23;20338;-82
2022/02/10 21:21:17;;;;;;;1.13;0.20;;;4.80;99.90;;;;;;6127427;23;20012;-82
2022/02/10 21:26:15;;;;;;;5.97;0.30;;;4.80;99.90;;;;;;6152643;23;20014;-82
2022/02/10 21:28:42;;;;;;;2.60;0.32;;;4.80;99.90;;;;;;6152970;23;20012;-81
2022/02/10 21:31:08;;;;;;;3.28;0.30;;;4.70;99.90;;;;;;6152100;23;20033;-82
2022/02/10 21:38:28;;;;;;;4.38;0.40;;;4.70;99.90;;;;;;6154552;23;20037;-82
2022/02/10 22:08:50;;;;;;;5.03;0.50;;;4.70;99.90;;;;;;6151720;23;20013;-81
2022/02/10 22:20:42;;;;;;;2.97;0.40;;;4.60;99.90;;;;;;6127135;23;20383;-80
2022/02/10 22:23:16;;;;;;;3.30;0.43;;;4.60;99.90;;;;;;6126647;23;20519;-81
2022/02/10 22:25:41;;;;;;;3.25;0.40;;;4.60;99.90;;;;;;6126982;23;20017;-80
2022/02/10 22:28:22;;;;;;;2.65;0.35;;;4.60;99.90;;;;;;6126802;23;20006;-81
2022/02/10 22:30:55;;;;;;;2.88;0.65;;;4.50;99.90;;;;;;6101995;23;20498;-81
2022/02/10 22:35:50;;;;;;;3.70;0.40;;;4.40;99.90;;;;;;6127522;23;20009;-81
2022/02/10 22:38:20;;;;;;;3.40;0.32;;;4.40;99.90;;;;;;6126936;23;20064;-81
2022/02/10 22:43:21;;;;;;;5.13;0.45;;;4.40;99.90;;;;;;6152870;23;20211;-80
2022/02/10 22:45:47;;;;;;;2.78;0.30;;;4.40;99.90;;;;;;6126981;23;20021;-81
2022/02/10 22:48:13;;;;;;;2.22;0.40;;;4.30;99.90;;;;;;6102790;23;20006;-81
2022/02/10 22:50:39;;;;;;;3.55;0.32;;;4.30;99.90;;;;;;6103048;23;20059;-81
2022/02/10 22:53:05;;;;;;;4.90;0.55;;;4.30;99.90;;;;;;6102448;23;20092;-81
2022/02/10 22:55:32;;;;;;;4.20;0.40;;;4.30;99.90;;;;;;6102249;23;20029;-81
2022/02/10 22:57:58;;;;;;;3.55;0.40;;;4.30;99.90;;;;;;6102097;23;20024;-81
2022/02/10 23:00:30;;;;;;;4.50;0.40;;;4.30;99.90;;;;;;6102700;23;20419;-80
2022/02/10 23:02:56;;;;;;;5.28;0.50;;;4.30;99.90;;;;;;6102680;23;20029;-81
2022/02/10 23:05:23;;;;;;;3.13;0.70;;;4.20;99.90;;;;;;6102784;23;20009;-81
2022/02/10 23:07:56;;;;;;;4.88;0.40;;;4.20;99.90;;;;;;6126456;23;20017;-80
2022/02/10 23:10:47;;;;;;;3.05;0.60;;;4.30;99.90;;;;;;6127250;23;20018;-80
2022/02/10 23:13:29;;;;;;;2.85;0.50;;;4.20;99.90;;;;;;6102437;23;20370;-83
2022/02/10 23:15:57;;;;;;;4.88;0.50;;;4.30;99.90;;;;;;6127687;23;20426;-81
2022/02/10 23:18:27;;;;;;;4.72;0.50;;;4.30;99.90;;;;;;6102732;23;20006;-80
2022/02/10 23:20:58;;;;;;;3.95;0.50;;;4.30;99.90;;;;;;6103041;23;20028;-81
2022/02/10 23:23:26;;;;;;;4.03;0.40;;;4.10;99.90;;;;;;6128357;23;20010;-80
2022/02/10 23:25:53;;;;;;;4.85;0.38;;;4.10;99.90;;;;;;6127015;23;20017;-81
2022/02/10 23:28:25;;;;;;;3.42;0.30;;;3.90;99.90;;;;;;6152745;23;20020;-80
2022/02/10 23:30:52;;;;;;;2.38;0.30;;;4.00;99.90;;;;;;6126784;23;20435;-81
2022/02/10 23:38:39;;;;;;;3.67;0.40;;;3.90;99.90;;;;;;6152920;23;20016;-80
2022/02/10 23:43:50;;;;;;;2.40;0.30;;;3.90;99.90;;;;;;6152170;23;20002;-80
2022/02/10 23:46:17;;;;;;;2.83;0.30;;;3.70;99.90;;;;;;6153195;23;20096;-80
2022/02/10 23:48:43;;;;;;;1.55;0.20;;;3.60;99.90;;;;;;6152480;23;20010;-80
2022/02/10 23:51:09;;;;;;;0.98;0.20;;;3.50;99.90;;;;;;6153374;23;20434;-80
2022/02/10 23:53:35;;;;;;;1.05;0.20;;;3.50;99.90;;;;;;6125963;23;20008;-80
2022/02/10 23:56:05;;;;;;;1.25;0.20;;;3.50;99.90;;;;;;6126401;23;20010;-80
2022/02/10 23:58:51;;;;;;;1.85;0.30;;;3.40;99.90;;;;;;6151164;23;20057;-80
